sensor_id;sensor_type;location;lat;lon;timestamp;temperature;humidity
39019;DHT22;24786;51.984;5.872;2023-06-26T00:00:23;23.60;97.00
39019;DHT22;24786;51.984;5.872;2023-06-26T00:02:48;23.50;97.00
39019;DHT22;24786;51.984;5.872;2023-06-26T00:05:14;23.60;97.20
39019;DHT22;24786;51.984;5.872;2023-06-26T00:07:39;23.50;97.30
39019;DHT22;24786;51.984;5.872;2023-06-26T00:10:05;23.50;97.30
39019;DHT22;24786;51.984;5.872;2023-06-26T00:12:31;23.40;97.40
39019;DHT22;24786;51.984;5.872;2023-06-26T00:14:56;23.30;97.50
39019;DHT22;24786;51.984;5.872;2023-06-26T00:17:22;23.30;97.60
39019;DHT22;24786;51.984;5.872;2023-06-26T00:19:48;23.30;97.70
39019;DHT22;24786;51.984;5.872;2023-06-26T00:22:14;23.20;97.80
39019;DHT22;24786;51.984;5.872;2023-06-26T00:24:39;23.20;97.80
39019;DHT22;24786;51.984;5.872;2023-06-26T00:27:05;23.20;97.90
39019;DHT22;24786;51.984;5.872;2023-06-26T00:29:30;23.10;98.00
39019;DHT22;24786;51.984;5.872;2023-06-26T00:31:56;23.10;98.00
39019;DHT22;24786;51.984;5.872;2023-06-26T00:34:21;23.10;98.10
39019;DHT22;24786;51.984;5.872;2023-06-26T00:36:47;23.10;98.20
39019;DHT22;24786;51.984;5.872;2023-06-26T00:39:12;23.10;98.30
39019;DHT22;24786;51.984;5.872;2023-06-26T00:41:38;23.10;98.30
39019;DHT22;24786;51.984;5.872;2023-06-26T00:44:06;23.00;98.40
39019;DHT22;24786;51.984;5.872;2023-06-26T00:46:32;23.10;98.50
39019;DHT22;24786;51.984;5.872;2023-06-26T00:49:02;23.00;98.50
39019;DHT22;24786;51.984;5.872;2023-06-26T00:51:29;23.00;98.60
39019;DHT22;24786;51.984;5.872;2023-06-26T00:53:55;23.00;98.70
39019;DHT22;24786;51.984;5.872;2023-06-26T00:56:20;22.90;98.70
39019;DHT22;24786;51.984;5.872;2023-06-26T00:58:46;22.90;99.00
39019;DHT22;24786;51.984;5.872;2023-06-26T01:01:12;22.80;99.20
39019;DHT22;24786;51.984;5.872;2023-06-26T01:03:48;22.80;99.20
39019;DHT22;24786;51.984;5.872;2023-06-26T01:06:17;22.80;99.30
39019;DHT22;24786;51.984;5.872;2023-06-26T01:08:43;22.80;99.30
39019;DHT22;24786;51.984;5.872;2023-06-26T01:11:09;22.80;99.20
39019;DHT22;24786;51.984;5.872;2023-06-26T01:13:35;22.80;99.20
39019;DHT22;24786;51.984;5.872;2023-06-26T01:16:00;22.90;99.20
39019;DHT22;24786;51.984;5.872;2023-06-26T01:18:27;22.90;99.20
39019;DHT22;24786;51.984;5.872;2023-06-26T01:20:53;22.90;99.10
39019;DHT22;24786;51.984;5.872;2023-06-26T01:23:31;22.90;99.10
39019;DHT22;24786;51.984;5.872;2023-06-26T01:28:33;22.90;99.10
39019;DHT22;24786;51.984;5.872;2023-06-26T01:30:59;22.90;99.10
39019;DHT22;24786;51.984;5.872;2023-06-26T01:33:25;22.80;99.20
39019;DHT22;24786;51.984;5.872;2023-06-26T01:35:51;22.80;99.20
39019;DHT22;24786;51.984;5.872;2023-06-26T01:38:18;22.80;99.30
39019;DHT22;24786;51.984;5.872;2023-06-26T01:40:45;22.80;99.30
39019;DHT22;24786;51.984;5.872;2023-06-26T01:46:00;22.80;99.40
39019;DHT22;24786;51.984;5.872;2023-06-26T01:48:29;22.80;99.60
39019;DHT22;24786;51.984;5.872;2023-06-26T01:50:56;22.70;99.60
39019;DHT22;24786;51.984;5.872;2023-06-26T01:53:24;22.70;99.80
39019;DHT22;24786;51.984;5.872;2023-06-26T01:55:52;22.70;99.90
39019;DHT22;24786;51.984;5.872;2023-06-26T01:58:19;22.70;99.90
39019;DHT22;24786;51.984;5.872;2023-06-26T02:00:46;22.60;99.90
39019;DHT22;24786;51.984;5.872;2023-06-26T02:03:11;22.60;99.90
39019;DHT22;24786;51.984;5.872;2023-06-26T02:05:37;22.70;99.90
39019;DHT22;24786;51.984;5.872;2023-06-26T02:08:02;22.60;99.90
39019;DHT22;24786;51.984;5.872;2023-06-26T02:10:28;22.60;99.90
39019;DHT22;24786;51.984;5.872;2023-06-26T02:12:53;22.70;99.90
39019;DHT22;24786;51.984;5.872;2023-06-26T02:15:19;22.60;99.90
39019;DHT22;24786;51.984;5.872;2023-06-26T02:17:44;22.60;99.90
39019;DHT22;24786;51.984;5.872;2023-06-26T02:20:13;22.60;99.90
39019;DHT22;24786;51.984;5.872;2023-06-26T02:22:39;22.60;99.90
39019;DHT22;24786;51.984;5.872;2023-06-26T02:25:04;22.50;99.90
39019;DHT22;24786;51.984;5.872;2023-06-26T02:27:30;22.50;99.90
39019;DHT22;24786;51.984;5.872;2023-06-26T02:29:56;22.50;99.90
39019;DHT22;24786;51.984;5.872;2023-06-26T02:32:21;22.40;99.90
39019;DHT22;24786;51.984;5.872;2023-06-26T02:34:47;22.40;99.90
39019;DHT22;24786;51.984;5.872;2023-06-26T02:37:12;22.40;99.90
39019;DHT22;24786;51.984;5.872;2023-06-26T02:39:38;22.40;99.90
39019;DHT22;24786;51.984;5.872;2023-06-26T02:42:03;22.40;99.90
39019;DHT22;24786;51.984;5.872;2023-06-26T02:44:29;22.30;99.90
39019;DHT22;24786;51.984;5.872;2023-06-26T02:46:54;22.30;99.90
39019;DHT22;24786;51.984;5.872;2023-06-26T02:49:20;22.20;99.90
39019;DHT22;24786;51.984;5.872;2023-06-26T02:51:45;22.20;99.90
39019;DHT22;24786;51.984;5.872;2023-06-26T02:54:11;22.10;99.90
39019;DHT22;24786;51.984;5.872;2023-06-26T02:56:36;22.10;99.90
39019;DHT22;24786;51.984;5.872;2023-06-26T02:59:02;22.00;99.90
39019;DHT22;24786;51.984;5.872;2023-06-26T03:01:28;22.00;99.90
39019;DHT22;24786;51.984;5.872;2023-06-26T03:03:54;21.90;99.90
39019;DHT22;24786;51.984;5.872;2023-06-26T03:06:19;21.90;99.90
39019;DHT22;24786;51.984;5.872;2023-06-26T03:08:45;21.90;99.90
39019;DHT22;24786;51.984;5.872;2023-06-26T03:11:10;21.80;99.90
39019;DHT22;24786;51.984;5.872;2023-06-26T03:13:36;21.80;99.90
39019;DHT22;24786;51.984;5.872;2023-06-26T03:16:01;21.70;99.90
39019;DHT22;24786;51.984;5.872;2023-06-26T03:18:27;21.70;99.90
39019;DHT22;24786;51.984;5.872;2023-06-26T03:20:53;21.60;99.90
39019;DHT22;24786;51.984;5.872;2023-06-26T03:23:22;21.50;99.90
39019;DHT22;24786;51.984;5.872;2023-06-26T03:25:48;21.50;99.90
39019;DHT22;24786;51.984;5.872;2023-06-26T03:28:14;21.50;99.90
39019;DHT22;24786;51.984;5.872;2023-06-26T03:30:39;21.50;99.90
39019;DHT22;24786;51.984;5.872;2023-06-26T03:33:05;21.40;99.90
39019;DHT22;24786;51.984;5.872;2023-06-26T03:35:30;21.40;99.90
39019;DHT22;24786;51.984;5.872;2023-06-26T03:37:56;21.30;99.90
39019;DHT22;24786;51.984;5.872;2023-06-26T03:40:22;21.30;99.90
39019;DHT22;24786;51.984;5.872;2023-06-26T03:42:47;21.30;99.90
39019;DHT22;24786;51.984;5.872;2023-06-26T03:45:13;21.20;99.90
39019;DHT22;24786;51.984;5.872;2023-06-26T03:47:38;21.20;99.90
39019;DHT22;24786;51.984;5.872;2023-06-26T03:50:04;21.10;99.90
39019;DHT22;24786;51.984;5.872;2023-06-26T03:52:29;21.10;99.90
39019;DHT22;24786;51.984;5.872;2023-06-26T03:54:57;21.00;99.90
39019;DHT22;24786;51.984;5.872;2023-06-26T03:57:22;21.10;99.90
39019;DHT22;24786;51.984;5.872;2023-06-26T03:59:48;21.10;99.90
39019;DHT22;24786;51.984;5.872;2023-06-26T04:02:13;21.00;99.90
39019;DHT22;24786;51.984;5.872;2023-06-26T04:04:39;21.00;99.90
39019;DHT22;24786;51.984;5.872;2023-06-26T04:07:04;21.00;99.90
39019;DHT22;24786;51.984;5.872;2023-06-26T04:09:30;21.00;99.90
39019;DHT22;24786;51.984;5.872;2023-06-26T04:11:55;21.00;99.90
39019;DHT22;24786;51.984;5.872;2023-06-26T04:14:21;21.00;99.90
39019;DHT22;24786;51.984;5.872;2023-06-26T04:16:47;20.90;99.90
39019;DHT22;24786;51.984;5.872;2023-06-26T04:19:12;20.90;99.90
39019;DHT22;24786;51.984;5.872;2023-06-26T04:21:38;20.90;99.90
39019;DHT22;24786;51.984;5.872;2023-06-26T04:24:04;21.00;99.90
39019;DHT22;24786;51.984;5.872;2023-06-26T04:26:29;21.00;99.90
39019;DHT22;24786;51.984;5.872;2023-06-26T04:28:55;21.00;99.90
39019;DHT22;24786;51.984;5.872;2023-06-26T04:31:20;21.10;99.90
39019;DHT22;24786;51.984;5.872;2023-06-26T04:33:47;21.00;99.90
39019;DHT22;24786;51.984;5.872;2023-06-26T04:36:18;21.00;99.90
39019;DHT22;24786;51.984;5.872;2023-06-26T04:38:44;20.90;99.90
39019;DHT22;24786;51.984;5.872;2023-06-26T04:41:09;20.90;99.90
39019;DHT22;24786;51.984;5.872;2023-06-26T04:43:35;20.90;99.90
39019;DHT22;24786;51.984;5.872;2023-06-26T04:46:02;20.90;99.90
39019;DHT22;24786;51.984;5.872;2023-06-26T04:48:27;20.90;99.90
39019;DHT22;24786;51.984;5.872;2023-06-26T04:50:53;20.80;99.90
39019;DHT22;24786;51.984;5.872;2023-06-26T04:53:20;20.80;99.90
39019;DHT22;24786;51.984;5.872;2023-06-26T04:55:45;20.80;99.90
39019;DHT22;24786;51.984;5.872;2023-06-26T04:58:11;20.80;99.90
39019;DHT22;24786;51.984;5.872;2023-06-26T05:00:36;20.80;99.90
39019;DHT22;24786;51.984;5.872;2023-06-26T05:03:02;20.80;99.90
39019;DHT22;24786;51.984;5.872;2023-06-26T05:05:28;20.80;99.90
39019;DHT22;24786;51.984;5.872;2023-06-26T05:07:54;20.80;99.90
39019;DHT22;24786;51.984;5.872;2023-06-26T05:10:19;20.80;99.90
39019;DHT22;24786;51.984;5.872;2023-06-26T05:12:45;20.80;99.90
39019;DHT22;24786;51.984;5.872;2023-06-26T05:15:10;20.90;99.90
39019;DHT22;24786;51.984;5.872;2023-06-26T05:17:36;21.00;99.90
39019;DHT22;24786;51.984;5.872;2023-06-26T05:20:01;21.10;99.90
39019;DHT22;24786;51.984;5.872;2023-06-26T05:22:29;21.20;99.90
39019;DHT22;24786;51.984;5.872;2023-06-26T05:24:54;21.30;99.90
39019;DHT22;24786;51.984;5.872;2023-06-26T05:27:20;21.40;99.90
39019;DHT22;24786;51.984;5.872;2023-06-26T05:29:47;21.60;99.90
39019;DHT22;24786;51.984;5.872;2023-06-26T05:32:13;21.70;99.90
39019;DHT22;24786;51.984;5.872;2023-06-26T05:34:40;21.80;99.90
39019;DHT22;24786;51.984;5.872;2023-06-26T05:37:06;21.90;99.90
39019;DHT22;24786;51.984;5.872;2023-06-26T05:39:32;22.00;99.90
39019;DHT22;24786;51.984;5.872;2023-06-26T05:41:58;22.00;99.90
39019;DHT22;24786;51.984;5.872;2023-06-26T05:44:23;21.90;99.90
39019;DHT22;24786;51.984;5.872;2023-06-26T05:46:49;21.80;99.90
39019;DHT22;24786;51.984;5.872;2023-06-26T05:49:14;21.80;99.90
39019;DHT22;24786;51.984;5.872;2023-06-26T05:51:40;21.90;99.90
39019;DHT22;24786;51.984;5.872;2023-06-26T05:54:05;21.90;99.90
39019;DHT22;24786;51.984;5.872;2023-06-26T05:56:31;22.00;99.90
39019;DHT22;24786;51.984;5.872;2023-06-26T05:58:57;22.00;99.90
39019;DHT22;24786;51.984;5.872;2023-06-26T06:01:23;22.10;99.90
39019;DHT22;24786;51.984;5.872;2023-06-26T06:03:49;22.20;99.90
39019;DHT22;24786;51.984;5.872;2023-06-26T06:06:15;22.30;99.90
39019;DHT22;24786;51.984;5.872;2023-06-26T06:08:41;22.30;99.90
39019;DHT22;24786;51.984;5.872;2023-06-26T06:11:06;22.50;99.90
39019;DHT22;24786;51.984;5.872;2023-06-26T06:13:32;22.70;99.90
39019;DHT22;24786;51.984;5.872;2023-06-26T06:15:57;22.80;99.90
39019;DHT22;24786;51.984;5.872;2023-06-26T06:18:23;22.90;99.90
39019;DHT22;24786;51.984;5.872;2023-06-26T06:20:48;22.90;99.90
39019;DHT22;24786;51.984;5.872;2023-06-26T06:23:16;22.90;99.90
39019;DHT22;24786;51.984;5.872;2023-06-26T06:25:42;22.90;99.90
39019;DHT22;24786;51.984;5.872;2023-06-26T06:28:07;22.90;99.90
39019;DHT22;24786;51.984;5.872;2023-06-26T06:30:33;23.00;99.90
39019;DHT22;24786;51.984;5.872;2023-06-26T06:32:58;23.00;99.90
39019;DHT22;24786;51.984;5.872;2023-06-26T06:35:24;23.10;99.90
39019;DHT22;24786;51.984;5.872;2023-06-26T06:37:49;23.20;99.90
39019;DHT22;24786;51.984;5.872;2023-06-26T06:40:15;23.30;99.90
39019;DHT22;24786;51.984;5.872;2023-06-26T06:42:40;23.40;99.90
39019;DHT22;24786;51.984;5.872;2023-06-26T06:45:06;23.60;99.90
39019;DHT22;24786;51.984;5.872;2023-06-26T06:47:32;23.80;99.90
39019;DHT22;24786;51.984;5.872;2023-06-26T06:49:58;23.90;99.90
39019;DHT22;24786;51.984;5.872;2023-06-26T06:52:24;23.90;99.80
39019;DHT22;24786;51.984;5.872;2023-06-26T06:54:53;23.90;99.90
39019;DHT22;24786;51.984;5.872;2023-06-26T06:57:19;23.80;99.30
39019;DHT22;24786;51.984;5.872;2023-06-26T06:59:45;23.70;99.40
39019;DHT22;24786;51.984;5.872;2023-06-26T07:02:13;23.60;99.20
39019;DHT22;24786;51.984;5.872;2023-06-26T07:04:38;23.50;99.30
39019;DHT22;24786;51.984;5.872;2023-06-26T07:07:04;23.60;99.40
39019;DHT22;24786;51.984;5.872;2023-06-26T07:09:29;23.70;99.40
39019;DHT22;24786;51.984;5.872;2023-06-26T07:11:54;23.70;99.30
39019;DHT22;24786;51.984;5.872;2023-06-26T07:14:20;23.80;99.00
39019;DHT22;24786;51.984;5.872;2023-06-26T07:16:45;23.80;98.60
39019;DHT22;24786;51.984;5.872;2023-06-26T07:19:11;23.80;98.80
39019;DHT22;24786;51.984;5.872;2023-06-26T07:21:36;23.80;98.90
39019;DHT22;24786;51.984;5.872;2023-06-26T07:24:02;23.60;98.60
39019;DHT22;24786;51.984;5.872;2023-06-26T07:26:27;23.40;98.80
39019;DHT22;24786;51.984;5.872;2023-06-26T07:28:53;23.30;99.00
39019;DHT22;24786;51.984;5.872;2023-06-26T07:31:21;23.30;99.10
39019;DHT22;24786;51.984;5.872;2023-06-26T07:33:47;23.50;99.00
39019;DHT22;24786;51.984;5.872;2023-06-26T07:36:12;23.50;98.90
39019;DHT22;24786;51.984;5.872;2023-06-26T07:38:38;23.60;98.90
39019;DHT22;24786;51.984;5.872;2023-06-26T07:41:03;23.60;98.90
39019;DHT22;24786;51.984;5.872;2023-06-26T07:43:29;23.60;99.00
39019;DHT22;24786;51.984;5.872;2023-06-26T07:45:54;23.80;98.80
39019;DHT22;24786;51.984;5.872;2023-06-26T07:48:24;23.80;98.50
39019;DHT22;24786;51.984;5.872;2023-06-26T07:50:49;23.70;98.60
39019;DHT22;24786;51.984;5.872;2023-06-26T07:53:15;23.60;98.60
39019;DHT22;24786;51.984;5.872;2023-06-26T07:55:40;23.70;98.60
39019;DHT22;24786;51.984;5.872;2023-06-26T07:58:06;23.70;98.50
39019;DHT22;24786;51.984;5.872;2023-06-26T08:00:32;23.70;98.40
39019;DHT22;24786;51.984;5.872;2023-06-26T08:02:57;23.70;98.20
39019;DHT22;24786;51.984;5.872;2023-06-26T08:05:23;23.60;98.40
39019;DHT22;24786;51.984;5.872;2023-06-26T08:07:48;23.40;98.60
39019;DHT22;24786;51.984;5.872;2023-06-26T08:10:14;23.30;98.80
39019;DHT22;24786;51.984;5.872;2023-06-26T08:12:39;23.50;98.80
39019;DHT22;24786;51.984;5.872;2023-06-26T08:15:08;23.60;98.70
39019;DHT22;24786;51.984;5.872;2023-06-26T08:17:33;23.70;98.70
39019;DHT22;24786;51.984;5.872;2023-06-26T08:19:59;23.90;98.60
39019;DHT22;24786;51.984;5.872;2023-06-26T08:22:24;24.10;98.50
39019;DHT22;24786;51.984;5.872;2023-06-26T08:24:50;24.20;98.30
39019;DHT22;24786;51.984;5.872;2023-06-26T08:27:15;24.10;98.20
39019;DHT22;24786;51.984;5.872;2023-06-26T08:29:41;24.10;98.00
39019;DHT22;24786;51.984;5.872;2023-06-26T08:32:06;23.80;98.20
39019;DHT22;24786;51.984;5.872;2023-06-26T08:34:32;23.60;98.30
39019;DHT22;24786;51.984;5.872;2023-06-26T08:36:57;23.50;98.50
39019;DHT22;24786;51.984;5.872;2023-06-26T08:39:23;23.30;98.50
39019;DHT22;24786;51.984;5.872;2023-06-26T08:41:48;23.10;98.80
39019;DHT22;24786;51.984;5.872;2023-06-26T08:44:14;23.20;98.90
39019;DHT22;24786;51.984;5.872;2023-06-26T08:46:39;23.30;98.90
39019;DHT22;24786;51.984;5.872;2023-06-26T08:49:09;23.40;98.90
39019;DHT22;24786;51.984;5.872;2023-06-26T08:51:36;23.60;98.90
39019;DHT22;24786;51.984;5.872;2023-06-26T08:54:02;23.60;98.40
39019;DHT22;24786;51.984;5.872;2023-06-26T08:56:37;23.80;98.00
39019;DHT22;24786;51.984;5.872;2023-06-26T08:59:05;24.00;97.20
39019;DHT22;24786;51.984;5.872;2023-06-26T09:01:31;23.90;97.00
39019;DHT22;24786;51.984;5.872;2023-06-26T09:03:56;23.80;96.60
39019;DHT22;24786;51.984;5.872;2023-06-26T09:06:22;23.70;96.90
39019;DHT22;24786;51.984;5.872;2023-06-26T09:08:48;23.70;96.80
39019;DHT22;24786;51.984;5.872;2023-06-26T09:11:13;23.60;96.80
39019;DHT22;24786;51.984;5.872;2023-06-26T09:13:39;23.40;96.90
39019;DHT22;24786;51.984;5.872;2023-06-26T09:16:08;23.30;97.10
39019;DHT22;24786;51.984;5.872;2023-06-26T09:18:33;23.50;97.00
39019;DHT22;24786;51.984;5.872;2023-06-26T09:20:59;23.70;96.40
39019;DHT22;24786;51.984;5.872;2023-06-26T09:23:25;23.90;96.20
39019;DHT22;24786;51.984;5.872;2023-06-26T09:25:51;23.90;95.70
39019;DHT22;24786;51.984;5.872;2023-06-26T09:28:16;23.80;95.60
39019;DHT22;24786;51.984;5.872;2023-06-26T09:30:45;23.80;95.40
39019;DHT22;24786;51.984;5.872;2023-06-26T09:33:17;23.80;95.60
39019;DHT22;24786;51.984;5.872;2023-06-26T09:35:43;24.00;95.10
39019;DHT22;24786;51.984;5.872;2023-06-26T09:38:08;24.00;94.30
39019;DHT22;24786;51.984;5.872;2023-06-26T09:40:34;24.00;93.70
39019;DHT22;24786;51.984;5.872;2023-06-26T09:43:04;24.10;93.70
39019;DHT22;24786;51.984;5.872;2023-06-26T09:45:30;24.10;92.90
39019;DHT22;24786;51.984;5.872;2023-06-26T09:47:59;24.00;93.20
39019;DHT22;24786;51.984;5.872;2023-06-26T09:50:24;23.80;93.20
39019;DHT22;24786;51.984;5.872;2023-06-26T09:52:52;23.60;93.40
39019;DHT22;24786;51.984;5.872;2023-06-26T09:55:18;23.40;93.50
39019;DHT22;24786;51.984;5.872;2023-06-26T09:57:44;23.50;93.80
39019;DHT22;24786;51.984;5.872;2023-06-26T10:00:11;23.60;93.80
39019;DHT22;24786;51.984;5.872;2023-06-26T10:02:37;23.90;93.80
39019;DHT22;24786;51.984;5.872;2023-06-26T10:05:03;23.90;93.70
39019;DHT22;24786;51.984;5.872;2023-06-26T10:07:28;23.80;93.70
39019;DHT22;24786;51.984;5.872;2023-06-26T10:09:54;23.60;93.70
39019;DHT22;24786;51.984;5.872;2023-06-26T10:12:28;23.30;93.40
39019;DHT22;24786;51.984;5.872;2023-06-26T10:14:53;23.20;93.90
39019;DHT22;24786;51.984;5.872;2023-06-26T10:17:20;23.40;93.90
39019;DHT22;24786;51.984;5.872;2023-06-26T10:19:46;23.70;93.50
39019;DHT22;24786;51.984;5.872;2023-06-26T10:22:14;24.00;93.30
39019;DHT22;24786;51.984;5.872;2023-06-26T10:24:40;24.10;93.20
39019;DHT22;24786;51.984;5.872;2023-06-26T10:27:25;24.20;93.00
39019;DHT22;24786;51.984;5.872;2023-06-26T10:29:58;24.20;92.20
39019;DHT22;24786;51.984;5.872;2023-06-26T10:32:26;24.20;92.40
39019;DHT22;24786;51.984;5.872;2023-06-26T10:34:53;24.10;92.00
39019;DHT22;24786;51.984;5.872;2023-06-26T10:37:18;24.10;92.00
39019;DHT22;24786;51.984;5.872;2023-06-26T10:39:47;24.10;91.70
39019;DHT22;24786;51.984;5.872;2023-06-26T10:42:15;24.20;91.90
39019;DHT22;24786;51.984;5.872;2023-06-26T10:44:44;24.40;91.80
39019;DHT22;24786;51.984;5.872;2023-06-26T10:47:10;24.60;91.40
39019;DHT22;24786;51.984;5.872;2023-06-26T10:49:36;24.80;91.10
39019;DHT22;24786;51.984;5.872;2023-06-26T10:52:02;25.00;89.20
39019;DHT22;24786;51.984;5.872;2023-06-26T10:54:31;24.90;88.30
39019;DHT22;24786;51.984;5.872;2023-06-26T10:56:57;25.00;89.20
39019;DHT22;24786;51.984;5.872;2023-06-26T10:59:27;25.00;88.50
39019;DHT22;24786;51.984;5.872;2023-06-26T11:07:21;24.90;87.30
39019;DHT22;24786;51.984;5.872;2023-06-26T11:12:37;24.90;86.90
39019;DHT22;24786;51.984;5.872;2023-06-26T11:15:08;24.60;86.80
39019;DHT22;24786;51.984;5.872;2023-06-26T11:17:35;24.50;86.80
39019;DHT22;24786;51.984;5.872;2023-06-26T11:20:01;24.60;85.90
39019;DHT22;24786;51.984;5.872;2023-06-26T11:22:26;24.70;86.20
39019;DHT22;24786;51.984;5.872;2023-06-26T11:24:52;24.70;86.10
39019;DHT22;24786;51.984;5.872;2023-06-26T11:27:18;24.70;86.10
39019;DHT22;24786;51.984;5.872;2023-06-26T11:29:47;24.80;86.70
39019;DHT22;24786;51.984;5.872;2023-06-26T11:32:13;24.70;85.40
39019;DHT22;24786;51.984;5.872;2023-06-26T11:34:39;24.60;84.60
39019;DHT22;24786;51.984;5.872;2023-06-26T11:37:06;24.30;84.80
39019;DHT22;24786;51.984;5.872;2023-06-26T11:39:33;24.20;85.20
39019;DHT22;24786;51.984;5.872;2023-06-26T11:41:59;24.10;85.80
39019;DHT22;24786;51.984;5.872;2023-06-26T11:44:24;24.20;85.90
39019;DHT22;24786;51.984;5.872;2023-06-26T11:46:54;24.30;85.40
39019;DHT22;24786;51.984;5.872;2023-06-26T11:49:20;24.50;85.10
39019;DHT22;24786;51.984;5.872;2023-06-26T11:51:48;24.70;85.00
39019;DHT22;24786;51.984;5.872;2023-06-26T11:54:14;24.70;84.70
39019;DHT22;24786;51.984;5.872;2023-06-26T11:56:40;24.70;84.40
39019;DHT22;24786;51.984;5.872;2023-06-26T11:59:06;24.70;84.20
39019;DHT22;24786;51.984;5.872;2023-06-26T12:01:36;24.50;84.80
39019;DHT22;24786;51.984;5.872;2023-06-26T12:04:06;24.50;85.10
39019;DHT22;24786;51.984;5.872;2023-06-26T12:06:33;24.60;84.50
39019;DHT22;24786;51.984;5.872;2023-06-26T12:09:00;24.70;84.50
39019;DHT22;24786;51.984;5.872;2023-06-26T12:11:25;24.70;83.70
39019;DHT22;24786;51.984;5.872;2023-06-26T12:13:52;24.80;82.80
39019;DHT22;24786;51.984;5.872;2023-06-26T12:16:18;25.00;83.10
39019;DHT22;24786;51.984;5.872;2023-06-26T12:18:43;25.00;82.80
39019;DHT22;24786;51.984;5.872;2023-06-26T12:21:25;25.00;82.90
39019;DHT22;24786;51.984;5.872;2023-06-26T12:23:57;24.90;83.10
39019;DHT22;24786;51.984;5.872;2023-06-26T12:26:23;25.00;82.70
39019;DHT22;24786;51.984;5.872;2023-06-26T12:28:49;25.00;81.90
39019;DHT22;24786;51.984;5.872;2023-06-26T12:31:15;24.70;82.30
39019;DHT22;24786;51.984;5.872;2023-06-26T12:33:42;24.50;82.30
39019;DHT22;24786;51.984;5.872;2023-06-26T12:36:13;24.20;82.70
39019;DHT22;24786;51.984;5.872;2023-06-26T12:38:44;24.30;83.10
39019;DHT22;24786;51.984;5.872;2023-06-26T12:41:13;24.60;82.30
39019;DHT22;24786;51.984;5.872;2023-06-26T12:43:42;24.80;81.80
39019;DHT22;24786;51.984;5.872;2023-06-26T12:46:08;24.90;81.70
39019;DHT22;24786;51.984;5.872;2023-06-26T12:48:40;25.20;81.40
39019;DHT22;24786;51.984;5.872;2023-06-26T12:51:12;25.50;80.10
39019;DHT22;24786;51.984;5.872;2023-06-26T12:53:38;25.60;80.20
39019;DHT22;24786;51.984;5.872;2023-06-26T12:56:07;25.80;80.30
39019;DHT22;24786;51.984;5.872;2023-06-26T12:58:33;25.70;79.60
39019;DHT22;24786;51.984;5.872;2023-06-26T13:00:59;25.70;80.70
39019;DHT22;24786;51.984;5.872;2023-06-26T13:03:24;25.80;80.70
39019;DHT22;24786;51.984;5.872;2023-06-26T13:05:50;25.80;81.20
39019;DHT22;24786;51.984;5.872;2023-06-26T13:08:16;25.80;81.00
39019;DHT22;24786;51.984;5.872;2023-06-26T13:10:42;25.60;79.90
39019;DHT22;24786;51.984;5.872;2023-06-26T13:13:09;25.50;79.20
39019;DHT22;24786;51.984;5.872;2023-06-26T13:15:35;25.50;79.20
39019;DHT22;24786;51.984;5.872;2023-06-26T13:18:00;25.60;79.40
39019;DHT22;24786;51.984;5.872;2023-06-26T13:20:26;25.50;77.00
39019;DHT22;24786;51.984;5.872;2023-06-26T13:22:52;25.50;78.20
39019;DHT22;24786;51.984;5.872;2023-06-26T13:28:01;25.70;77.70
39019;DHT22;24786;51.984;5.872;2023-06-26T13:30:27;25.60;77.40
39019;DHT22;24786;51.984;5.872;2023-06-26T13:32:52;25.60;76.90
39019;DHT22;24786;51.984;5.872;2023-06-26T13:35:21;25.50;77.30
39019;DHT22;24786;51.984;5.872;2023-06-26T13:37:46;25.50;77.60
39019;DHT22;24786;51.984;5.872;2023-06-26T13:40:12;25.40;77.70
39019;DHT22;24786;51.984;5.872;2023-06-26T13:42:41;25.20;77.80
39019;DHT22;24786;51.984;5.872;2023-06-26T13:45:07;25.30;78.10
39019;DHT22;24786;51.984;5.872;2023-06-26T13:47:33;25.20;78.20
39019;DHT22;24786;51.984;5.872;2023-06-26T13:49:59;25.00;78.20
39019;DHT22;24786;51.984;5.872;2023-06-26T13:52:25;24.90;77.90
39019;DHT22;24786;51.984;5.872;2023-06-26T13:54:54;24.90;77.70
39019;DHT22;24786;51.984;5.872;2023-06-26T13:57:19;24.90;77.60
39019;DHT22;24786;51.984;5.872;2023-06-26T13:59:47;25.00;77.60
39019;DHT22;24786;51.984;5.872;2023-06-26T14:02:13;25.10;76.70
39019;DHT22;24786;51.984;5.872;2023-06-26T14:04:38;25.30;76.90
39019;DHT22;24786;51.984;5.872;2023-06-26T14:07:07;25.50;76.60
39019;DHT22;24786;51.984;5.872;2023-06-26T14:09:33;25.40;76.20
39019;DHT22;24786;51.984;5.872;2023-06-26T14:11:59;25.40;76.30
39019;DHT22;24786;51.984;5.872;2023-06-26T14:14:25;25.50;76.70
39019;DHT22;24786;51.984;5.872;2023-06-26T14:16:50;25.50;75.70
39019;DHT22;24786;51.984;5.872;2023-06-26T14:19:16;25.30;74.90
39019;DHT22;24786;51.984;5.872;2023-06-26T14:21:42;25.10;75.20
39019;DHT22;24786;51.984;5.872;2023-06-26T14:24:08;25.00;74.50
39019;DHT22;24786;51.984;5.872;2023-06-26T14:26:33;24.80;74.40
39019;DHT22;24786;51.984;5.872;2023-06-26T14:28:59;24.90;74.20
39019;DHT22;24786;51.984;5.872;2023-06-26T14:31:25;25.00;73.90
39019;DHT22;24786;51.984;5.872;2023-06-26T14:33:51;25.10;73.50
39019;DHT22;24786;51.984;5.872;2023-06-26T14:36:16;25.10;72.60
39019;DHT22;24786;51.984;5.872;2023-06-26T14:38:42;25.10;72.80
39019;DHT22;24786;51.984;5.872;2023-06-26T14:41:09;25.00;72.40
39019;DHT22;24786;51.984;5.872;2023-06-26T14:43:35;24.90;72.90
39019;DHT22;24786;51.984;5.872;2023-06-26T14:46:00;25.00;73.10
39019;DHT22;24786;51.984;5.872;2023-06-26T14:48:26;25.10;73.60
39019;DHT22;24786;51.984;5.872;2023-06-26T14:50:51;25.10;73.80
39019;DHT22;24786;51.984;5.872;2023-06-26T14:53:17;25.20;74.10
39019;DHT22;24786;51.984;5.872;2023-06-26T14:55:42;25.30;74.20
39019;DHT22;24786;51.984;5.872;2023-06-26T14:58:08;25.30;74.20
39019;DHT22;24786;51.984;5.872;2023-06-26T15:00:33;25.30;74.40
39019;DHT22;24786;51.984;5.872;2023-06-26T15:02:59;25.40;74.00
39019;DHT22;24786;51.984;5.872;2023-06-26T15:05:24;25.40;73.00
39019;DHT22;24786;51.984;5.872;2023-06-26T15:07:50;25.30;71.90
39019;DHT22;24786;51.984;5.872;2023-06-26T15:10:18;25.20;72.10
39019;DHT22;24786;51.984;5.872;2023-06-26T15:12:45;25.10;72.30
39019;DHT22;24786;51.984;5.872;2023-06-26T15:15:10;25.00;72.40
39019;DHT22;24786;51.984;5.872;2023-06-26T15:17:35;24.90;72.60
39019;DHT22;24786;51.984;5.872;2023-06-26T15:20:01;24.90;72.90
39019;DHT22;24786;51.984;5.872;2023-06-26T15:22:26;24.80;73.20
39019;DHT22;24786;51.984;5.872;2023-06-26T15:24:52;24.90;73.80
39019;DHT22;24786;51.984;5.872;2023-06-26T15:27:18;24.90;74.00
39019;DHT22;24786;51.984;5.872;2023-06-26T15:29:43;25.00;74.10
39019;DHT22;24786;51.984;5.872;2023-06-26T15:32:09;25.20;74.10
39019;DHT22;24786;51.984;5.872;2023-06-26T15:34:34;25.30;73.90
39019;DHT22;24786;51.984;5.872;2023-06-26T15:37:00;25.40;74.30
39019;DHT22;24786;51.984;5.872;2023-06-26T15:39:25;25.40;74.10